Time;durP1;ratioP1;P1;durP2;ratioP2;P2;SDS_P1;SDS_P2;PMS_P1;PMS_P2;Temp;Humidity;BMP_temperature;BMP_pressure;BME280_temperature;BME280_humidity;BME280_pressure;Samples;Min_cycle;Max_cycle;Signal;HPM_P1;HPM_P2
2022/12/20 00:01:53;;;;;;;19.40;11.07;;;;;;;-143.84;82.38;45214.72;5089913;28;21080;-72
2022/12/20 00:04:20;;;;;;;24.47;12.93;;;;;;;-143.84;82.02;45237.59;5089681;28;20446;-72
2022/12/20 00:06:49;;;;;;;21.90;11.93;;;;;;;-143.84;82.35;45189.97;5089786;28;20440;-72
2022/12/20 00:09:16;;;;;;;20.80;11.37;;;;;;;-143.84;82.65;45170.94;5089577;28;20513;-72
2022/12/20 00:11:43;;;;;;;18.57;11.53;;;;;;;-143.84;82.76;45193.78;5089389;28;20443;-72
2022/12/20 00:14:11;;;;;;;20.83;10.97;;;;;;;-143.84;82.75;45155.69;5089551;28;20543;-72
2022/12/20 00:16:38;;;;;;;20.63;11.60;;;;;;;-143.84;82.81;45229.97;5089664;28;20485;-73
2022/12/20 00:19:07;;;;;;;28.33;12.37;;;;;;;-143.84;82.31;45199.50;5089116;28;20487;-73
2022/12/20 00:21:35;;;;;;;22.37;13.13;;;;;;;-143.84;82.62;45167.13;5089411;28;20520;-73
2022/12/20 00:24:05;;;;;;;23.27;12.30;;;;;;;-143.84;82.30;45239.50;5089430;28;20436;-73
2022/12/20 00:26:34;;;;;;;18.47;10.80;;;;;;;-143.84;82.52;45199.50;5091186;28;20455;-73
2022/12/20 00:29:02;;;;;;;23.03;12.07;;;;;;;-143.84;82.38;45189.97;5092888;28;20516;-73
2022/12/20 00:31:30;;;;;;;19.27;11.10;;;;;;;-143.84;82.61;45174.75;5093201;28;20820;-73
2022/12/20 00:33:59;;;;;;;23.73;13.77;;;;;;;-143.84;82.92;45172.84;5093138;28;20440;-72
2022/12/20 00:36:28;;;;;;;23.43;11.93;;;;;;;-143.84;83.06;45184.25;5092962;28;20434;-72
2022/12/20 00:38:56;;;;;;;19.80;11.10;;;;;;;-143.84;83.66;45155.69;5093105;28;20436;-72
2022/12/20 00:41:28;;;;;;;27.40;13.73;;;;;;;-143.84;83.30;45201.41;5092946;28;20444;-72
2022/12/20 00:43:55;;;;;;;23.63;13.53;;;;;;;-143.84;83.18;45167.13;5092833;28;20879;-73
2022/12/20 00:46:23;;;;;;;26.33;12.20;;;;;;;-143.84;83.36;45188.06;5092705;28;20473;-72
2022/12/20 00:48:51;;;;;;;27.37;11.93;;;;;;;-143.84;83.18;45153.81;5092746;28;20529;-72
2022/12/20 00:51:20;;;;;;;19.93;10.50;;;;;;;-143.84;83.23;45170.94;5092973;28;20446;-73
2022/12/20 00:53:47;;;;;;;20.30;10.50;;;;;;;-143.84;83.06;45174.75;5092131;28;21006;-73
2022/12/20 00:56:15;;;;;;;27.53;12.40;;;;;;;-143.84;82.87;45197.59;5091277;28;20493;-73
2022/12/20 00:58:44;;;;;;;21.40;11.63;;;;;;;-143.84;82.71;45209.03;5091511;28;20433;-73
2022/12/20 01:01:18;;;;;;;21.97;12.90;;;;;;;-143.84;82.78;45159.50;5091163;28;20502;-73
2022/12/20 01:03:45;;;;;;;22.50;12.17;;;;;;;-143.84;82.72;45199.50;5090940;28;20509;-73
2022/12/20 01:06:13;;;;;;;24.80;12.97;;;;;;;-143.84;82.40;45207.13;5091339;28;20497;-70
2022/12/20 01:08:40;;;;;;;26.73;13.40;;;;;;;-143.84;82.23;45189.97;5091341;28;20447;-71
2022/12/20 01:11:10;;;;;;;21.87;12.00;;;;;;;-143.84;82.34;45205.22;5092761;28;20432;-71
2022/12/20 01:13:39;;;;;;;26.03;11.53;;;;;;;-143.84;82.19;45193.78;5092473;28;20517;-71
2022/12/20 01:16:10;;;;;;;26.77;12.93;;;;;;;-143.84;81.90;45188.06;5092191;28;20795;-70
2022/12/20 01:18:37;;;;;;;20.67;12.00;;;;;;;-143.84;82.24;45195.69;5091960;28;20498;-72
2022/12/20 01:21:07;;;;;;;23.33;12.70;;;;;;;-143.84;82.49;45188.06;5092110;28;20436;-73
2022/12/20 01:23:34;;;;;;;23.90;12.37;;;;;;;-143.84;82.47;45186.16;5091840;28;20460;-72
2022/12/20 01:26:03;;;;;;;21.57;11.27;;;;;;;-143.84;82.61;45216.63;5091806;28;20443;-72
2022/12/20 01:28:31;;;;;;;21.20;12.37;;;;;;;-143.84;82.73;45193.78;5092031;28;20440;-72
2022/12/20 01:30:58;;;;;;;25.53;12.70;;;;;;;-143.84;83.03;45163.31;5091990;28;20447;-72
2022/12/20 01:33:27;;;;;;;25.43;12.57;;;;;;;-143.84;83.20;45174.75;5091654;28;20797;-72
2022/12/20 01:35:57;;;;;;;19.70;12.13;;;;;;;-143.84;83.20;45172.84;5092030;28;20447;-73
2022/12/20 01:38:25;;;;;;;27.37;13.13;;;;;;;-143.84;82.92;45176.66;5092180;28;20579;-72
2022/12/20 01:40:53;;;;;;;22.87;12.67;;;;;;;-143.84;82.50;45161.41;5091846;28;20505;-72
2022/12/20 01:43:21;;;;;;;21.77;11.77;;;;;;;-143.84;82.42;45186.16;5091667;28;21245;-72
2022/12/20 01:45:49;;;;;;;21.63;12.30;;;;;;;-143.84;82.35;45205.22;5091571;28;20436;-72
2022/12/20 01:48:22;;;;;;;23.13;12.97;;;;;;;-143.84;82.30;45199.50;5091853;28;20440;-72
2022/12/20 01:50:51;;;;;;;24.10;11.37;;;;;;;-143.84;82.46;45184.25;5091883;28;20519;-72
2022/12/20 01:53:22;;;;;;;21.27;11.33;;;;;;;-143.84;82.53;45193.78;5091002;28;20432;-72
2022/12/20 01:55:50;;;;;;;30.40;13.27;;;;;;;-143.84;82.46;45178.56;5090762;28;21262;-73
2022/12/20 01:58:19;;;;;;;25.97;13.10;;;;;;;-143.84;82.63;45205.22;5092111;28;20447;-72
2022/12/20 02:00:47;;;;;;;21.40;12.10;;;;;;;-143.84;82.84;45167.13;5091324;28;20497;-72
2022/12/20 02:03:15;;;;;;;19.80;11.37;;;;;;;-143.84;82.98;45193.78;5071199;28;20486;-72
2022/12/20 02:05:45;;;;;;;23.70;13.30;;;;;;;-143.84;83.15;45165.22;5071382;28;20436;-72
2022/12/20 02:08:18;;;;;;;28.27;14.50;;;;;;;-143.84;82.49;45180.47;5071202;28;20429;-72
2022/12/20 02:11:00;;;;;;;21.30;12.57;;;;;;;-143.84;82.50;45201.41;5071616;28;20480;-72
2022/12/20 02:13:37;;;;;;;23.00;11.73;;;;;;;-143.84;82.63;45201.41;5071161;28;20444;-72
2022/12/20 02:16:05;;;;;;;26.10;13.60;;;;;;;-143.84;82.62;45216.63;5071170;28;20445;-72
2022/12/20 02:18:38;;;;;;;23.53;12.90;;;;;;;-143.84;82.78;45243.31;5070532;28;20985;-72
2022/12/20 02:21:30;;;;;;;24.27;12.40;;;;;;;-143.84;82.77;45197.59;5070646;28;20445;-72
2022/12/20 02:24:54;;;;;;;21.53;12.47;;;;;;;-143.84;82.67;45176.66;5070677;28;20530;-72
2022/12/20 02:27:38;;;;;;;26.10;12.50;;;;;;;-143.84;82.63;45176.66;5008435;28;20470;-72
2022/12/20 02:30:14;;;;;;;21.73;11.90;;;;;;;-143.84;82.78;45224.25;5008465;28;20518;-72
2022/12/20 02:32:48;;;;;;;24.00;11.60;;;;;;;-143.84;82.68;45172.84;5046681;28;20444;-72
2022/12/20 02:35:22;;;;;;;21.53;11.93;;;;;;;-143.84;82.81;45189.97;5070096;28;20445;-72
2022/12/20 02:37:51;;;;;;;25.50;12.30;;;;;;;-143.84;83.09;45178.56;5069544;28;20518;-72
2022/12/20 02:40:22;;;;;;;23.40;12.27;;;;;;;-143.84;83.31;45148.09;5069463;28;20432;-72
2022/12/20 02:42:54;;;;;;;18.50;10.57;;;;;;;-143.84;83.68;45138.56;5068522;28;20492;-72
2022/12/20 02:45:25;;;;;;;17.87;11.13;;;;;;;-143.84;83.92;45136.66;5069694;28;20449;-72
2022/12/20 02:47:56;;;;;;;20.10;10.70;;;;;;;-143.84;84.15;45148.09;5070369;28;20444;-72
2022/12/20 02:50:28;;;;;;;20.00;10.90;;;;;;;-143.84;84.26;45119.53;5069914;28;20511;-72
2022/12/20 02:52:56;;;;;;;21.10;10.37;;;;;;;-143.84;84.33;45150.00;5069939;28;20444;-72
2022/12/20 02:55:33;;;;;;;19.20;10.33;;;;;;;-143.84;84.26;45127.13;5070311;28;20911;-72
2022/12/20 02:58:07;;;;;;;16.77;10.20;;;;;;;-143.84;84.06;45163.31;5070157;28;20451;-72
2022/12/20 03:00:40;;;;;;;25.93;11.80;;;;;;;-143.84;83.42;45134.75;5070556;28;20432;-72
2022/12/20 03:03:23;;;;;;;21.03;11.27;;;;;;;-143.84;83.46;45174.75;5070168;28;20481;-72
2022/12/20 03:05:53;;;;;;;18.63;10.63;;;;;;;-143.84;83.18;45172.84;5070184;28;20502;-72
2022/12/20 03:08:21;;;;;;;22.70;10.57;;;;;;;-143.84;82.93;45186.16;5070100;28;20490;-72
2022/12/20 03:10:48;;;;;;;20.97;10.57;;;;;;;-143.84;83.03;45161.41;5070111;28;20437;-72
2022/12/20 03:13:16;;;;;;;16.97;10.77;;;;;;;-143.84;82.85;45182.38;5070369;28;20875;-72
2022/12/20 03:15:44;;;;;;;19.37;10.70;;;;;;;-143.84;83.02;45189.97;5070459;28;20440;-72
2022/12/20 03:18:12;;;;;;;21.97;11.27;;;;;;;-143.84;82.58;45191.88;5069587;28;20493;-72
2022/12/20 03:20:39;;;;;;;23.27;12.07;;;;;;;-143.84;82.52;45205.22;5070249;28;20494;-72
2022/12/20 03:23:07;;;;;;;20.73;10.73;;;;;;;-143.84;82.55;45167.13;5069700;28;20555;-73
2022/12/20 03:25:34;;;;;;;20.73;10.40;;;;;;;-143.84;82.47;45186.16;5069775;28;20436;-73
2022/12/20 03:28:01;;;;;;;17.77;11.00;;;;;;;-143.84;81.84;45186.16;5070085;28;20444;-72
2022/12/20 03:30:28;;;;;;;19.70;10.90;;;;;;;-143.84;81.85;45157.59;5070072;28;20919;-72
2022/12/20 03:32:57;;;;;;;15.77;10.03;;;;;;;-143.84;81.64;45228.06;5070029;28;20440;-72
2022/12/20 03:35:25;;;;;;;17.73;10.10;;;;;;;-143.84;81.29;45188.06;5070364;28;20498;-72
2022/12/20 03:37:52;;;;;;;17.80;10.90;;;;;;;-143.84;81.27;45205.22;5069892;28;20436;-72
2022/12/20 03:40:19;;;;;;;21.53;12.10;;;;;;;-143.84;81.39;45188.06;5069899;28;20844;-72
2022/12/20 03:42:46;;;;;;;21.30;10.80;;;;;;;-143.84;81.68;45189.97;5069990;28;20440;-72
2022/12/20 03:45:14;;;;;;;20.37;10.80;;;;;;;-143.84;81.69;45220.44;5069642;28;20437;-72
2022/12/20 03:47:41;;;;;;;18.80;10.40;;;;;;;-143.84;81.38;45163.31;5069833;28;20825;-72
2022/12/20 03:50:11;;;;;;;19.83;11.53;;;;;;;-143.84;81.22;45209.03;5069698;28;20436;-72
2022/12/20 03:52:38;;;;;;;19.37;11.53;;;;;;;-143.84;80.91;45216.63;5069607;28;20443;-72
2022/12/20 03:55:07;;;;;;;18.63;10.57;;;;;;;-143.84;81.12;45228.06;5069511;28;20775;-72
2022/12/20 03:57:34;;;;;;;21.77;11.70;;;;;;;-143.84;81.58;45195.69;5069591;28;21007;-72
2022/12/20 04:00:01;;;;;;;19.43;11.30;;;;;;;-143.84;81.33;45178.56;5083509;28;20875;-72
2022/12/20 04:02:28;;;;;;;19.57;10.90;;;;;;;-143.84;81.27;45222.34;5092820;28;20446;-73
2022/12/20 04:04:55;;;;;;;17.93;11.23;;;;;;;-143.84;81.13;45209.03;5093484;28;20489;-72
2022/12/20 04:07:24;;;;;;;22.30;12.00;;;;;;;-143.84;81.08;45222.34;5093629;28;20448;-72
2022/12/20 04:09:51;;;;;;;21.10;11.70;;;;;;;-143.84;81.14;45201.41;5093999;28;20456;-72
2022/12/20 04:12:18;;;;;;;26.37;12.23;;;;;;;-143.84;81.16;45189.97;5093401;28;20438;-73
2022/12/20 04:14:45;;;;;;;20.03;12.13;;;;;;;-143.84;81.09;45224.25;5093311;28;20512;-73
2022/12/20 04:17:12;;;;;;;21.80;11.50;;;;;;;-143.84;81.24;45189.97;5093655;28;20438;-72
2022/12/20 04:19:39;;;;;;;18.80;11.80;;;;;;;-143.84;81.46;45209.03;5092812;28;20561;-72
2022/12/20 04:22:06;;;;;;;22.60;14.17;;;;;;;-143.84;81.40;45195.69;5093118;28;20456;-72
2022/12/20 04:24:35;;;;;;;22.97;11.70;;;;;;;-143.84;81.87;45189.97;5093309;28;20471;-72
2022/12/20 04:27:02;;;;;;;27.60;13.83;;;;;;;-143.84;82.04;45180.47;5093524;28;20444;-72
2022/12/20 04:29:29;;;;;;;26.40;12.97;;;;;;;-143.84;82.08;45207.13;5093397;28;20504;-72
2022/12/20 04:31:56;;;;;;;24.97;12.63;;;;;;;-143.84;82.00;45207.13;5093385;28;20513;-72
2022/12/20 04:34:23;;;;;;;24.43;12.80;;;;;;;-143.84;81.87;45199.50;5093340;28;20435;-72
2022/12/20 04:36:50;;;;;;;19.00;10.60;;;;;;;-143.84;82.18;45186.16;5092942;28;20436;-72
2022/12/20 04:39:18;;;;;;;20.47;10.70;;;;;;;-143.84;82.04;45189.97;5093282;28;20436;-72
2022/12/20 04:41:46;;;;;;;23.27;12.70;;;;;;;-143.84;81.58;45218.53;5093119;28;20941;-72
2022/12/20 04:44:13;;;;;;;22.67;11.40;;;;;;;-143.84;81.64;45201.41;5093176;28;20475;-73
2022/12/20 04:46:40;;;;;;;23.83;13.07;;;;;;;-143.84;81.60;45220.44;5093130;28;20444;-72
2022/12/20 04:49:07;;;;;;;22.30;11.43;;;;;;;-143.84;81.43;45207.13;5092927;28;20494;-72
2022/12/20 04:51:34;;;;;;;23.93;12.13;;;;;;;-143.84;81.51;45191.88;5090566;28;21019;-72
2022/12/20 04:54:00;;;;;;;19.13;10.90;;;;;;;-143.84;81.50;45193.78;5093301;28;20444;-73
2022/12/20 04:56:29;;;;;;;22.40;11.87;;;;;;;-143.84;81.75;45184.25;5093438;28;20474;-75
2022/12/20 04:58:58;;;;;;;24.07;12.20;;;;;;;-143.84;82.48;45186.16;5093338;28;20439;-73
2022/12/20 05:01:26;;;;;;;21.33;11.90;;;;;;;-143.84;82.09;45201.41;5093280;28;20443;-73
2022/12/20 05:03:53;;;;;;;19.80;11.27;;;;;;;-143.84;81.74;45205.22;5093241;28;20479;-75
2022/12/20 05:06:20;;;;;;;20.80;11.33;;;;;;;-143.84;81.58;45189.97;5092793;28;20991;-73
2022/12/20 05:08:48;;;;;;;17.83;9.70;;;;;;;-143.84;81.41;45212.84;5093549;28;20447;-73
2022/12/20 05:11:15;;;;;;;24.47;12.37;;;;;;;-143.84;81.70;45195.69;5093601;28;20435;-72
2022/12/20 05:13:42;;;;;;;18.40;10.53;;;;;;;-143.84;81.49;45189.97;5093250;28;20441;-72
2022/12/20 05:16:10;;;;;;;20.63;11.90;;;;;;;-143.84;81.32;45170.94;5093420;28;20432;-72
2022/12/20 05:18:38;;;;;;;23.50;11.00;;;;;;;-143.84;80.91;45224.25;5093160;28;20475;-73
2022/12/20 05:26:34;;;;;;;16.67;10.97;;;;;;;-143.84;80.74;45210.94;5093310;28;20778;-72
2022/12/20 05:29:01;;;;;;;20.53;11.33;;;;;;;-143.84;80.76;45218.53;5093480;28;20432;-73
2022/12/20 05:31:29;;;;;;;20.37;10.63;;;;;;;-143.84;80.82;45193.78;5092082;28;20436;-73
2022/12/20 05:33:56;;;;;;;19.20;11.10;;;;;;;-143.84;80.59;45205.22;5092621;28;20539;-73
2022/12/20 05:36:23;;;;;;;20.93;12.00;;;;;;;-143.84;80.43;45218.53;5092704;28;20432;-74
2022/12/20 05:38:51;;;;;;;22.80;12.13;;;;;;;-143.84;80.52;45229.97;5092310;28;20496;-74
2022/12/20 05:41:18;;;;;;;18.30;11.40;;;;;;;-143.84;80.70;45228.06;5091985;28;20440;-73
2022/12/20 05:43:46;;;;;;;24.87;11.20;;;;;;;-143.84;80.45;45220.44;5092086;28;20482;-72
2022/12/20 05:46:13;;;;;;;20.47;10.70;;;;;;;-143.84;80.48;45189.97;5091507;28;20877;-72
2022/12/20 05:48:41;;;;;;;22.90;11.27;;;;;;;-143.84;80.19;45201.41;5091557;28;20443;-72
2022/12/20 05:51:08;;;;;;;22.20;10.73;;;;;;;-143.84;79.95;45195.69;5091406;28;20547;-73
2022/12/20 05:53:35;;;;;;;19.37;11.33;;;;;;;-143.84;80.44;45218.53;5090411;28;20437;-73
2022/12/20 05:56:03;;;;;;;17.57;11.63;;;;;;;-143.84;79.96;45205.22;5090457;28;21085;-73
2022/12/20 05:58:30;;;;;;;22.10;12.43;;;;;;;-143.84;80.17;45188.06;5090169;28;20440;-73
2022/12/20 06:00:57;;;;;;;29.47;12.10;;;;;;;-143.84;79.85;45212.84;5090437;28;20825;-73
2022/12/20 06:03:24;;;;;;;16.87;10.90;;;;;;;-143.84;80.03;45189.97;5089662;28;20443;-73
2022/12/20 06:05:53;;;;;;;22.13;10.93;;;;;;;-143.84;79.99;45218.53;5089203;28;20839;-73
2022/12/20 06:08:22;;;;;;;19.87;11.87;;;;;;;-143.84;79.45;45216.63;5089697;28;20505;-73
2022/12/20 06:10:50;;;;;;;20.97;11.73;;;;;;;-143.84;79.33;45231.88;5089519;28;20541;-73
2022/12/20 06:13:17;;;;;;;22.00;11.33;;;;;;;-143.84;79.22;45233.78;5089386;28;20828;-73
2022/12/20 06:15:46;;;;;;;19.30;11.27;;;;;;;-143.84;79.05;45220.44;5089949;28;20466;-73
2022/12/20 06:18:13;;;;;;;18.97;11.93;;;;;;;-143.84;79.15;45191.88;5089790;28;20492;-73
2022/12/20 06:20:40;;;;;;;22.63;12.00;;;;;;;-143.84;78.92;45226.16;5090072;28;20531;-73
2022/12/20 06:23:09;;;;;;;20.83;11.57;;;;;;;-143.84;78.97;45214.72;5089642;28;20866;-73
2022/12/20 06:25:38;;;;;;;22.47;11.90;;;;;;;-143.84;78.61;45231.88;5089190;28;20483;-73
2022/12/20 06:28:06;;;;;;;23.23;12.33;;;;;;;-143.84;78.61;45207.13;5089730;28;20871;-73
2022/12/20 06:30:34;;;;;;;25.77;13.40;;;;;;;-143.84;78.70;45233.78;5089450;28;20445;-73
2022/12/20 06:33:02;;;;;;;23.70;12.37;;;;;;;-143.84;78.26;45231.88;5089430;28;20530;-73
2022/12/20 06:35:29;;;;;;;23.03;13.00;;;;;;;-143.84;77.80;45209.03;5089438;28;20436;-73
2022/12/20 06:37:57;;;;;;;21.60;12.37;;;;;;;-143.84;77.87;45243.31;5088942;28;20436;-71
2022/12/20 06:40:25;;;;;;;24.03;12.10;;;;;;;-143.84;78.06;45222.34;5089083;28;20500;-71
2022/12/20 06:42:52;;;;;;;24.97;11.53;;;;;;;-143.84;78.08;45229.97;5089524;28;20895;-71
2022/12/20 06:45:19;;;;;;;24.77;12.80;;;;;;;-143.84;78.05;45218.53;5089257;28;20561;-71
2022/12/20 06:47:46;;;;;;;19.43;11.67;;;;;;;-143.84;77.69;45207.13;5089138;28;20461;-71
2022/12/20 06:50:14;;;;;;;21.13;11.80;;;;;;;-143.84;77.20;45218.53;5089428;28;20433;-71
2022/12/20 06:52:41;;;;;;;17.37;11.20;;;;;;;-143.84;76.57;45212.84;5089315;28;20455;-71
2022/12/20 06:55:08;;;;;;;14.93;9.93;;;;;;;-143.84;76.72;45214.72;5089185;28;20434;-71
2022/12/20 06:57:37;;;;;;;14.33;9.50;;;;;;;-143.84;75.73;45235.69;5089119;28;20424;-71
2022/12/20 07:00:05;;;;;;;18.17;10.73;;;;;;;-143.84;74.59;45233.78;5089083;28;20437;-71
2022/12/20 07:02:32;;;;;;;21.13;10.43;;;;;;;-143.84;74.37;45210.94;5089330;28;20432;-71
2022/12/20 07:04:59;;;;;;;31.77;10.80;;;;;;;-143.84;73.86;45235.69;5089179;28;20850;-71
2022/12/20 07:07:26;;;;;;;17.43;10.23;;;;;;;-143.84;72.93;45231.88;5089042;28;20946;-71
2022/12/20 07:09:54;;;;;;;21.27;10.83;;;;;;;-143.84;73.15;45222.34;5088979;28;20438;-71
2022/12/20 07:12:22;;;;;;;17.40;10.30;;;;;;;-143.84;72.64;45214.72;5088966;28;20447;-71
2022/12/20 07:14:51;;;;;;;19.50;11.20;;;;;;;-143.84;71.56;45207.13;5088856;28;20455;-71
2022/12/20 07:17:18;;;;;;;23.93;11.40;;;;;;;-143.84;71.17;45250.91;5089034;28;20492;-71
2022/12/20 07:19:45;;;;;;;18.00;10.90;;;;;;;-143.84;71.31;45218.53;5088652;28;20475;-71
2022/12/20 07:22:12;;;;;;;21.63;10.43;;;;;;;-143.84;71.29;45235.69;5088777;28;21163;-71
2022/12/20 07:24:39;;;;;;;17.80;10.20;;;;;;;-143.84;70.74;45241.41;5088645;28;20479;-71
2022/12/20 07:27:07;;;;;;;16.00;9.60;;;;;;;-143.84;70.09;45216.63;5088754;28;20881;-71
2022/12/20 07:29:35;;;;;;;15.90;9.93;;;;;;;-143.84;69.62;45224.25;5088941;28;20435;-71
2022/12/20 07:32:03;;;;;;;20.30;10.07;;;;;;;-143.84;69.11;45220.44;5088799;28;20440;-71
2022/12/20 07:34:30;;;;;;;18.00;10.13;;;;;;;-143.84;68.38;45241.41;5089331;28;21295;-71
2022/12/20 07:36:58;;;;;;;14.03;9.43;;;;;;;-143.84;67.34;45229.97;5093060;28;20476;-71
2022/12/20 07:39:25;;;;;;;14.00;9.10;;;;;;;-143.84;67.10;45233.78;5093087;28;20478;-71
2022/12/20 07:41:54;;;;;;;17.67;10.03;;;;;;;-143.84;66.02;45220.44;5093115;28;20443;-71
2022/12/20 07:44:21;;;;;;;13.53;8.80;;;;;;;-143.84;65.00;45243.31;5092552;28;20572;-71
2022/12/20 07:46:48;;;;;;;17.90;9.80;;;;;;;-143.84;64.65;45237.59;5092970;28;20500;-71
2022/12/20 07:49:17;;;;;;;16.33;8.63;;;;;;;-143.84;64.05;45228.06;5092589;28;20443;-71
2022/12/20 07:51:48;;;;;;;12.60;8.10;;;;;;;-143.84;63.29;45195.69;5092666;28;20448;-71
2022/12/20 07:54:20;;;;;;;14.80;7.83;;;;;;;-143.84;62.17;45203.31;5092564;28;20501;-71
2022/12/20 07:56:50;;;;;;;11.30;7.17;;;;;;;-143.84;60.87;45212.84;5092517;28;20446;-71
2022/12/20 07:59:21;;;;;;;10.17;8.10;;;;;;;-143.84;59.50;45220.44;5092470;28;20439;-71
2022/12/20 08:01:49;;;;;;;15.93;8.03;;;;;;;-143.84;58.89;45220.44;5092761;28;20466;-71
2022/12/20 08:04:21;;;;;;;15.60;8.40;;;;;;;-143.84;58.46;45212.84;5092392;28;20444;-71
2022/12/20 08:06:50;;;;;;;14.83;7.57;;;;;;;-143.84;57.26;45189.97;5092335;28;20459;-71
2022/12/20 08:09:17;;;;;;;14.60;7.97;;;;;;;-143.84;55.95;45214.72;5092332;28;20540;-72
2022/12/20 08:11:47;;;;;;;13.90;8.50;;;;;;;-143.84;55.33;45191.88;5092111;28;20444;-71
2022/12/20 08:14:15;;;;;;;14.60;8.70;;;;;;;-143.84;53.94;45189.97;5092368;28;20439;-71
2022/12/20 08:16:43;;;;;;;10.87;7.27;;;;;;;-143.84;53.32;45201.41;5092207;28;20498;-71
2022/12/20 08:19:11;;;;;;;12.77;7.10;;;;;;;-143.84;52.67;45197.59;5091786;28;20488;-71
2022/12/20 08:21:39;;;;;;;19.30;8.17;;;;;;;-143.84;51.96;45205.22;5092144;28;21058;-71
2022/12/20 08:24:07;;;;;;;12.70;7.93;;;;;;;-143.84;51.39;45189.97;5091765;28;20456;-71
2022/12/20 08:26:38;;;;;;;15.20;6.97;;;;;;;-143.84;50.25;45184.25;5092046;28;20549;-71
2022/12/20 08:29:05;;;;;;;11.50;7.40;;;;;;;-143.84;49.88;45201.41;5091889;28;20499;-71
2022/12/20 08:31:32;;;;;;;15.57;7.73;;;;;;;-143.84;49.52;45178.56;5091928;28;20436;-71
2022/12/20 08:33:59;;;;;;;16.60;7.90;;;;;;;-143.84;50.14;45207.13;5091923;28;20440;-71
2022/12/20 08:36:26;;;;;;;10.50;7.10;;;;;;;-143.84;50.50;45191.88;5092423;28;20507;-71
2022/12/20 08:38:55;;;;;;;10.87;7.50;;;;;;;-143.84;49.79;45199.50;5091782;28;20471;-71
2022/12/20 08:41:22;;;;;;;10.87;7.07;;;;;;;-143.84;50.32;45201.41;5091917;28;20852;-71
2022/12/20 08:43:49;;;;;;;11.43;7.67;;;;;;;-143.84;50.70;45203.31;5091710;28;20829;-71
2022/12/20 08:46:16;;;;;;;14.10;8.80;;;;;;;-143.84;51.75;45184.25;5091278;28;20479;-71
2022/12/20 08:48:44;;;;;;;14.27;7.87;;;;;;;-143.84;53.12;45209.03;5091389;28;20497;-71
2022/12/20 08:51:11;;;;;;;11.77;7.80;;;;;;;-143.84;54.77;45174.75;5091800;28;20432;-71
2022/12/20 08:53:39;;;;;;;16.30;8.80;;;;;;;-143.84;54.86;45205.22;5091570;28;20447;-71
2022/12/20 08:56:10;;;;;;;13.33;8.70;;;;;;;-143.84;55.70;45193.78;5091417;28;20968;-71
2022/12/20 08:58:38;;;;;;;14.30;7.30;;;;;;;-143.84;54.33;45212.84;5091657;28;20509;-71
2022/12/20 09:01:08;;;;;;;10.63;6.77;;;;;;;-143.84;53.76;45186.16;5091114;28;20445;-71
2022/12/20 09:03:36;;;;;;;16.80;7.33;;;;;;;-143.84;52.38;45178.56;5091256;28;20441;-71
2022/12/20 09:06:07;;;;;;;11.43;7.67;;;;;;;-143.84;51.77;45184.25;5091137;28;20584;-71
2022/12/20 09:08:34;;;;;;;15.20;8.30;;;;;;;-143.84;52.24;45189.97;5091320;28;20491;-72
2022/12/20 09:11:06;;;;;;;9.53;6.60;;;;;;;-143.84;52.97;45174.75;5090970;28;20440;-71
2022/12/20 09:13:35;;;;;;;10.50;7.57;;;;;;;-143.84;54.13;45174.75;5091698;28;20448;-71
2022/12/20 09:16:03;;;;;;;14.77;7.90;;;;;;;-143.84;55.05;45163.31;5091050;28;20436;-72
2022/12/20 09:18:30;;;;;;;12.70;6.03;;;;;;;-143.84;54.87;45193.78;5090772;28;20476;-72
2022/12/20 09:21:00;;;;;;;11.50;7.43;;;;;;;-143.84;54.97;45193.78;5091148;28;20433;-71
2022/12/20 09:23:28;;;;;;;10.83;8.13;;;;;;;-143.84;54.09;45199.50;5090875;28;21020;-71
2022/12/20 09:25:55;;;;;;;17.27;8.70;;;;;;;-143.84;55.23;45188.06;5090548;28;20479;-71
2022/12/20 09:28:23;;;;;;;23.93;9.60;;;;;;;-143.84;54.92;45180.47;5090814;28;20437;-71
2022/12/20 09:30:51;;;;;;;16.27;8.37;;;;;;;-143.84;54.89;45210.94;5090738;28;20899;-71
2022/12/20 09:33:18;;;;;;;11.00;6.90;;;;;;;-143.84;55.17;45199.50;5090762;28;20448;-71
2022/12/20 09:35:46;;;;;;;19.67;10.00;;;;;;;-143.84;55.43;45178.56;5089998;28;20444;-71
2022/12/20 09:38:14;;;;;;;15.90;8.37;;;;;;;-143.84;55.66;45220.44;5090190;28;20455;-71
2022/12/20 09:40:46;;;;;;;9.03;7.00;;;;;;;-143.84;56.11;45207.13;5089618;28;20440;-71
2022/12/20 09:43:14;;;;;;;10.80;6.50;;;;;;;-143.84;57.31;45197.59;5090149;28;20441;-71
2022/12/20 09:45:42;;;;;;;15.60;6.80;;;;;;;-143.84;57.45;45195.69;5090497;28;20529;-71
2022/12/20 09:48:19;;;;;;;13.90;6.70;;;;;;;-143.84;57.91;45205.22;5090708;28;20918;-71
2022/12/20 09:50:58;;;;;;;10.67;7.00;;;;;;;-143.84;57.96;45201.41;5090424;28;20447;-71
2022/12/20 09:53:34;;;;;;;10.13;6.90;;;;;;;-143.84;57.52;45201.41;5090496;28;20437;-71
2022/12/20 09:56:10;;;;;;;9.27;5.83;;;;;;;-143.84;57.22;45186.16;5090253;28;20926;-71
2022/12/20 09:58:56;;;;;;;8.00;5.50;;;;;;;-143.84;57.22;45193.78;5089140;28;21075;-71
2022/12/20 10:01:25;;;;;;;8.17;4.90;;;;;;;-143.84;57.85;45186.16;5090323;28;20807;-71
2022/12/20 10:03:56;;;;;;;8.27;5.60;;;;;;;-143.84;57.59;45226.16;5090489;28;20961;-71
2022/12/20 10:06:36;;;;;;;8.17;6.00;;;;;;;-143.84;58.47;45212.84;5090149;28;20467;-71
2022/12/20 10:09:06;;;;;;;20.40;7.80;;;;;;;-143.84;59.16;45205.22;5090056;28;20435;-71
2022/12/20 10:11:58;;;;;;;12.80;7.20;;;;;;;-143.84;59.75;45218.53;5089914;28;20464;-71
2022/12/20 10:14:42;;;;;;;10.57;6.70;;;;;;;-143.84;60.01;45193.78;5089893;28;20440;-71
2022/12/20 10:17:16;;;;;;;10.30;6.37;;;;;;;-143.84;59.91;45201.41;5090089;28;20509;-71
2022/12/20 10:20:00;;;;;;;11.23;7.10;;;;;;;-143.84;60.10;45205.22;5089821;28;21368;-71
2022/12/20 10:22:33;;;;;;;9.93;5.30;;;;;;;-143.84;60.78;45210.94;5089724;28;20962;-71
2022/12/20 10:25:12;;;;;;;8.67;5.23;;;;;;;-143.84;60.64;45210.94;5089835;28;20511;-71
2022/12/20 10:27:42;;;;;;;17.70;6.87;;;;;;;-143.84;60.92;45212.84;5089646;28;20432;-71
2022/12/20 10:30:14;;;;;;;11.50;6.83;;;;;;;-143.84;60.73;45207.13;5089532;28;20833;-71
2022/12/20 10:32:44;;;;;;;11.93;6.60;;;;;;;-143.84;59.99;45184.25;5089602;28;20942;-71
2022/12/20 10:35:24;;;;;;;10.33;6.80;;;;;;;-143.84;59.99;45180.47;5089785;28;20445;-71
2022/12/20 10:37:59;;;;;;;14.80;6.40;;;;;;;-143.84;59.35;45210.94;5089591;28;20509;-71
2022/12/20 10:40:29;;;;;;;22.43;7.63;;;;;;;-143.84;59.18;45214.72;5089489;28;20449;-71
2022/12/20 10:42:57;;;;;;;12.03;5.77;;;;;;;-143.84;58.62;45201.41;5089406;28;20440;-71
2022/12/20 10:45:43;;;;;;;13.23;8.53;;;;;;;-143.84;59.44;45172.84;5089110;28;21092;-71
2022/12/20 10:48:27;;;;;;;11.23;5.90;;;;;;;-143.84;58.42;45197.59;5089477;28;20827;-71
2022/12/20 10:50:58;;;;;;;7.83;5.40;;;;;;;-143.84;58.35;45178.56;5089329;28;20437;-71
2022/12/20 10:53:27;;;;;;;10.77;6.50;;;;;;;-143.84;57.82;45201.41;5089055;28;20436;-71
2022/12/20 10:56:13;;;;;;;9.93;6.57;;;;;;;-143.84;57.76;45176.66;5089184;28;20540;-71
2022/12/20 10:58:41;;;;;;;22.27;6.20;;;;;;;-143.84;56.83;45184.25;5088948;28;20454;-71
2022/12/20 11:01:14;;;;;;;7.80;5.57;;;;;;;-143.84;57.02;45188.06;5089094;28;20440;-71
2022/12/20 11:04:02;;;;;;;16.00;7.73;;;;;;;-143.84;57.32;45191.88;5088942;28;20436;-71
2022/12/20 11:06:43;;;;;;;9.33;6.77;;;;;;;-143.84;57.96;45203.31;5089292;28;20477;-71
2022/12/20 11:09:24;;;;;;;8.87;6.47;;;;;;;-143.84;58.10;45235.69;5089281;28;20498;-71
2022/12/20 11:12:06;;;;;;;9.53;6.70;;;;;;;-143.84;58.60;45191.88;5089324;28;20460;-71
2022/12/20 11:14:35;;;;;;;9.47;6.53;;;;;;;-143.84;58.20;45228.06;5088834;28;20448;-72
2022/12/20 11:17:07;;;;;;;9.67;6.70;;;;;;;-143.84;58.06;45209.03;5088881;28;20451;-71
2022/12/20 11:19:59;;;;;;;12.47;7.63;;;;;;;-143.84;57.77;45184.25;5088621;28;20519;-71
2022/12/20 11:22:41;;;;;;;12.13;7.20;;;;;;;-143.84;58.86;45180.47;5071654;28;20452;-71